Decoded Metar for KGEY (GREYBULL in WY, USA) (IATA:GEY) | Meteo·Mobile Aviation Weather
aviador You're here:

KGEY Decoded Metar

GREYBULL in WY, USA
Report Time2018-09-19 13:53:00
UTC Time2018-09-19 14:30:15
Flight Rules vfr VFR
Wind300° at 10 kt
W.Decomp.*RWY 25: 8.1 kt HW 5.9 kt RCW
RWY 34: 5.9 kt HW 8.1 kt LCW
W.Rank300° ranks 6
Current wind is above 300° avg. (9.7)
Visibility9999 m
Phenomena:N/A
Clouds:N/A
Expected CloudBase > 1,600 ft AGL from Temp-Dew spread
CeilingNone
Temp10°C (ISA +3)
Dew Point06°C (76% RH)
AAT5.5°C
QNH1016 hPa
Density Alt4,272 ft
Elevation3,907 ft
Report Wrong Elevation
Raw Report
KGEY 191353Z AUTO 30010KT 10SM CLR 10/06 A3000 RMK AO2 SLP138
T01000061=

Extra information for KGEY:More info

Metar Taf Metar & Taf Last 4 Metars F.Rules Stats Wind Profile Meteogram Temp Stats Airport Information Weather charts Add Link Nearby VenuesMetar ALERT Operation Metar Decoded Social comments

AIRNAV info for KGEY